Time;durP1;ratioP1;P1;durP2;ratioP2;P2;SDS_P1;SDS_P2;PMS_P1;PMS_P2;Temp;Humidity;BMP_temperature;BMP_pressure;BME280_temperature;BME280_humidity;BME280_pressure;Samples;Min_cycle;Max_cycle;Signal;HPM_P1;HPM_P2
2022/10/14 00:02:20;;;;;;;26.17;16.63;;;;;;;;;;5054187;28;20029;-83
2022/10/14 00:04:46;;;;;;;31.13;17.77;;;;;;;;;;5055403;28;20479;-83
2022/10/14 00:07:12;;;;;;;30.83;16.90;;;;;;;;;;5053595;28;20064;-81
2022/10/14 00:09:40;;;;;;;27.17;16.67;;;;;;;;;;5054082;28;20387;-82
2022/10/14 00:12:06;;;;;;;28.27;17.20;;;;;;;;;;5052222;28;20031;-82
2022/10/14 00:14:32;;;;;;;28.35;16.95;;;;;;;;;;5053752;28;20174;-81
2022/10/14 00:16:58;;;;;;;28.23;15.10;;;;;;;;;;5038503;28;20060;-83
2022/10/14 00:19:25;;;;;;;26.75;16.63;;;;;;;;;;5040603;28;20032;-82
2022/10/14 00:21:50;;;;;;;26.50;15.57;;;;;;;;;;5054757;28;20506;-82
2022/10/14 00:24:17;;;;;;;28.40;16.52;;;;;;;;;;5054877;28;20033;-81
2022/10/14 00:26:44;;;;;;;32.47;17.42;;;;;;;;;;5043448;28;20030;-81
2022/10/14 00:29:14;;;;;;;27.05;16.23;;;;;;;;;;5036372;28;20025;-81
2022/10/14 00:31:41;;;;;;;26.48;16.67;;;;;;;;;;5039223;28;20029;-81
2022/10/14 00:34:07;;;;;;;29.10;17.63;;;;;;;;;;5054169;28;20025;-82
2022/10/14 00:36:33;;;;;;;31.17;17.25;;;;;;;;;;5036043;28;20036;-81
2022/10/14 00:38:59;;;;;;;27.85;16.48;;;;;;;;;;5054323;28;20049;-84
2022/10/14 00:41:26;;;;;;;30.77;17.02;;;;;;;;;;5052573;28;20032;-82
2022/10/14 00:43:57;;;;;;;28.48;16.67;;;;;;;;;;5052948;28;20020;-81
2022/10/14 00:46:24;;;;;;;29.85;16.30;;;;;;;;;;5052862;28;20082;-82
2022/10/14 00:48:51;;;;;;;26.05;16.63;;;;;;;;;;5052896;28;20017;-81
2022/10/14 00:51:17;;;;;;;28.38;16.95;;;;;;;;;;5052134;28;20025;-81
2022/10/14 00:53:43;;;;;;;30.73;17.13;;;;;;;;;;5047478;28;20062;-81
2022/10/14 00:56:10;;;;;;;27.63;16.30;;;;;;;;;;5052706;28;20029;-82
2022/10/14 00:58:37;;;;;;;30.63;16.83;;;;;;;;;;5035656;28;20128;-81
2022/10/14 01:01:03;;;;;;;30.58;17.33;;;;;;;;;;5035091;28;20025;-81
2022/10/14 01:03:29;;;;;;;29.17;17.13;;;;;;;;;;5036192;28;20017;-82
2022/10/14 01:06:01;;;;;;;25.90;15.73;;;;;;;;;;5036275;28;20377;-82
2022/10/14 01:08:30;;;;;;;30.13;17.37;;;;;;;;;;5053607;28;20021;-83
2022/10/14 01:11:01;;;;;;;27.63;15.63;;;;;;;;;;5052594;28;20091;-81
2022/10/14 01:13:32;;;;;;;27.88;16.67;;;;;;;;;;5035097;28;20029;-83
2022/10/14 01:16:05;;;;;;;27.95;16.63;;;;;;;;;;5054671;28;20032;-81
2022/10/14 01:18:31;;;;;;;29.13;16.67;;;;;;;;;;5054233;28;20021;-81
2022/10/14 01:21:01;;;;;;;26.95;15.20;;;;;;;;;;5052337;28;20567;-83
2022/10/14 01:23:42;;;;;;;26.58;15.25;;;;;;;;;;5052438;28;20017;-82
2022/10/14 01:26:21;;;;;;;24.60;15.68;;;;;;;;;;5054438;28;20021;-83
2022/10/14 01:28:59;;;;;;;25.48;15.60;;;;;;;;;;5054672;28;20116;-83
2022/10/14 01:31:28;;;;;;;28.77;17.17;;;;;;;;;;5057749;28;20021;-84
2022/10/14 01:33:56;;;;;;;25.27;15.05;;;;;;;;;;5057972;28;20029;-84
2022/10/14 01:36:31;;;;;;;26.67;15.52;;;;;;;;;;5058119;28;20029;-83
2022/10/14 01:39:00;;;;;;;27.45;15.38;;;;;;;;;;5057681;28;20094;-83
2022/10/14 01:41:31;;;;;;;26.80;15.02;;;;;;;;;;5055708;28;20029;-84
2022/10/14 01:43:59;;;;;;;27.88;15.57;;;;;;;;;;5057215;28;20057;-83
2022/10/14 01:46:26;;;;;;;27.67;15.85;;;;;;;;;;5057444;28;20051;-83
2022/10/14 01:48:57;;;;;;;28.65;16.13;;;;;;;;;;5057110;28;20108;-83
2022/10/14 01:51:28;;;;;;;26.25;15.38;;;;;;;;;;5056119;28;20029;-83
2022/10/14 01:53:56;;;;;;;28.52;16.30;;;;;;;;;;5055207;28;20021;-83
2022/10/14 01:56:23;;;;;;;27.33;15.32;;;;;;;;;;5055228;28;20028;-83
2022/10/14 01:58:50;;;;;;;27.23;15.95;;;;;;;;;;5056599;28;20025;-83
2022/10/14 02:01:16;;;;;;;28.42;15.60;;;;;;;;;;5054449;28;20033;-83
2022/10/14 02:03:43;;;;;;;27.73;15.82;;;;;;;;;;5056880;28;20033;-83
2022/10/14 02:06:15;;;;;;;28.65;16.50;;;;;;;;;;5055776;28;20544;-83
2022/10/14 02:09:00;;;;;;;28.45;16.23;;;;;;;;;;5037835;28;20395;-83
2022/10/14 02:11:28;;;;;;;25.75;15.20;;;;;;;;;;5053663;28;20013;-83
2022/10/14 02:14:05;;;;;;;29.27;16.83;;;;;;;;;;5049216;28;20028;-83
2022/10/14 02:16:32;;;;;;;29.02;17.08;;;;;;;;;;5051982;28;20523;-82
2022/10/14 02:19:01;;;;;;;27.90;16.75;;;;;;;;;;5054068;28;20021;-82
2022/10/14 02:21:54;;;;;;;28.13;15.52;;;;;;;;;;5053577;28;20036;-82
2022/10/14 02:24:22;;;;;;;26.98;16.10;;;;;;;;;;5053534;28;20111;-82
2022/10/14 02:26:50;;;;;;;32.15;15.85;;;;;;;;;;5054709;28;20029;-82
2022/10/14 02:29:18;;;;;;;27.23;16.45;;;;;;;;;;5045491;28;20020;-82
2022/10/14 02:31:45;;;;;;;25.67;15.60;;;;;;;;;;5054946;28;20518;-82
2022/10/14 02:34:12;;;;;;;26.40;14.85;;;;;;;;;;5055823;28;20032;-82
2022/10/14 02:36:38;;;;;;;26.58;15.65;;;;;;;;;;5036581;28;20033;-83
2022/10/14 02:39:05;;;;;;;27.55;15.75;;;;;;;;;;5054902;28;20090;-83
2022/10/14 02:41:34;;;;;;;26.42;16.30;;;;;;;;;;5053594;28;20029;-83
2022/10/14 02:44:00;;;;;;;31.02;17.77;;;;;;;;;;5055134;28;20028;-83
2022/10/14 02:46:27;;;;;;;30.23;17.90;;;;;;;;;;5053677;28;20032;-83
2022/10/14 02:48:53;;;;;;;34.20;19.75;;;;;;;;;;5053883;28;20128;-83
2022/10/14 02:51:19;;;;;;;30.52;18.02;;;;;;;;;;5053050;28;20029;-83
2022/10/14 02:53:45;;;;;;;30.88;17.75;;;;;;;;;;5054459;28;20013;-83
2022/10/14 02:56:15;;;;;;;27.85;17.52;;;;;;;;;;5054704;28;20124;-83
2022/10/14 02:58:41;;;;;;;30.52;16.63;;;;;;;;;;5054260;28;20474;-83
2022/10/14 03:01:07;;;;;;;31.38;17.15;;;;;;;;;;5052422;28;20035;-82
2022/10/14 03:03:33;;;;;;;32.70;16.50;;;;;;;;;;5043120;28;20055;-83
2022/10/14 03:05:59;;;;;;;28.98;17.30;;;;;;;;;;5036264;28;20163;-83
2022/10/14 03:08:25;;;;;;;30.67;17.75;;;;;;;;;;5055241;28;20480;-83
2022/10/14 03:10:51;;;;;;;35.55;18.17;;;;;;;;;;5053815;28;20033;-83
2022/10/14 03:13:17;;;;;;;31.52;18.10;;;;;;;;;;5054646;28;20029;-83
2022/10/14 03:15:43;;;;;;;35.55;19.55;;;;;;;;;;5036550;28;20052;-83
2022/10/14 03:18:09;;;;;;;31.17;18.70;;;;;;;;;;5053387;28;20063;-81
2022/10/14 03:20:36;;;;;;;29.60;17.30;;;;;;;;;;5056594;28;20047;-82
2022/10/14 03:23:02;;;;;;;37.33;19.65;;;;;;;;;;5059876;28;20029;-82
2022/10/14 03:25:28;;;;;;;35.63;20.08;;;;;;;;;;5059599;28;20479;-82
2022/10/14 03:27:54;;;;;;;36.20;20.88;;;;;;;;;;5039359;28;20048;-82
2022/10/14 03:30:20;;;;;;;35.47;19.33;;;;;;;;;;5055433;28;20052;-82
2022/10/14 03:32:46;;;;;;;37.03;20.25;;;;;;;;;;5057837;28;20029;-82
2022/10/14 03:35:12;;;;;;;34.10;20.30;;;;;;;;;;5058529;28;20104;-82
2022/10/14 03:37:38;;;;;;;32.60;20.60;;;;;;;;;;5057127;28;20048;-82
2022/10/14 03:40:04;;;;;;;35.33;18.73;;;;;;;;;;5040126;28;20049;-82
2022/10/14 03:42:30;;;;;;;33.63;19.10;;;;;;;;;;5058175;28;20052;-83
2022/10/14 03:44:56;;;;;;;32.05;18.38;;;;;;;;;;5059654;28;20063;-82
2022/10/14 03:47:22;;;;;;;32.22;18.70;;;;;;;;;;5056936;28;20035;-83
2022/10/14 03:49:48;;;;;;;38.40;20.33;;;;;;;;;;5066854;28;20017;-82
2022/10/14 03:52:14;;;;;;;38.97;20.10;;;;;;;;;;5070725;28;20025;-82
2022/10/14 03:54:40;;;;;;;37.55;20.17;;;;;;;;;;5070804;28;20013;-82
2022/10/14 03:57:06;;;;;;;34.03;20.52;;;;;;;;;;5052751;28;20502;-80
2022/10/14 03:59:32;;;;;;;34.45;19.77;;;;;;;;;;5054349;28;20037;-81
2022/10/14 04:01:58;;;;;;;42.58;21.85;;;;;;;;;;5071306;28;20032;-81
2022/10/14 04:04:24;;;;;;;37.97;21.20;;;;;;;;;;5051142;28;20044;-83
2022/10/14 04:06:50;;;;;;;36.45;20.98;;;;;;;;;;5061640;28;20021;-83
2022/10/14 04:09:16;;;;;;;39.92;20.30;;;;;;;;;;5048071;28;20075;-83
2022/10/14 04:11:42;;;;;;;36.97;20.40;;;;;;;;;;5045853;28;20115;-82
2022/10/14 04:14:08;;;;;;;38.63;22.30;;;;;;;;;;5064238;28;20029;-82
2022/10/14 04:16:34;;;;;;;38.80;21.20;;;;;;;;;;5044334;28;20025;-82
2022/10/14 04:19:00;;;;;;;39.70;21.70;;;;;;;;;;5060845;28;20082;-82
2022/10/14 04:21:26;;;;;;;37.33;20.75;;;;;;;;;;5061761;28;20040;-82
2022/10/14 04:23:52;;;;;;;37.92;19.85;;;;;;;;;;5061602;28;20075;-83
2022/10/14 04:26:18;;;;;;;38.67;21.23;;;;;;;;;;5059260;28;20036;-83
2022/10/14 04:28:44;;;;;;;40.33;21.83;;;;;;;;;;5057130;28;20075;-82
2022/10/14 04:31:10;;;;;;;39.45;19.77;;;;;;;;;;5053221;28;20033;-81
2022/10/14 04:33:36;;;;;;;34.10;20.90;;;;;;;;;;5050819;28;20052;-82
2022/10/14 04:36:04;;;;;;;37.67;22.05;;;;;;;;;;5058112;28;20033;-82
2022/10/14 04:38:30;;;;;;;37.75;20.33;;;;;;;;;;5053626;28;20104;-82
2022/10/14 04:40:56;;;;;;;38.60;21.38;;;;;;;;;;5052137;28;20307;-82
2022/10/14 04:43:22;;;;;;;37.90;21.48;;;;;;;;;;5037359;28;20024;-83
2022/10/14 04:45:48;;;;;;;41.33;23.08;;;;;;;;;;5053436;28;20035;-82
2022/10/14 04:48:15;;;;;;;42.75;23.08;;;;;;;;;;5055899;28;20048;-83
2022/10/14 04:50:41;;;;;;;39.67;20.85;;;;;;;;;;5053453;28;20025;-83
2022/10/14 04:53:08;;;;;;;38.67;21.65;;;;;;;;;;5036898;28;20083;-84
2022/10/14 04:55:34;;;;;;;38.78;20.77;;;;;;;;;;5053702;28;20047;-84
2022/10/14 04:58:00;;;;;;;37.92;20.52;;;;;;;;;;5055075;28;20029;-84
2022/10/14 05:00:26;;;;;;;40.47;21.77;;;;;;;;;;5048091;28;20020;-82
2022/10/14 05:02:52;;;;;;;39.55;23.10;;;;;;;;;;5043667;28;20033;-83
2022/10/14 05:05:18;;;;;;;41.97;22.45;;;;;;;;;;5057349;28;20031;-82
2022/10/14 05:07:44;;;;;;;44.75;23.42;;;;;;;;;;5039215;28;20494;-84
2022/10/14 05:10:10;;;;;;;42.38;21.90;;;;;;;;;;5047927;28;20479;-84
2022/10/14 05:12:37;;;;;;;43.15;22.67;;;;;;;;;;5054288;28;20033;-83
2022/10/14 05:15:04;;;;;;;45.00;21.63;;;;;;;;;;5055894;28;20029;-83
2022/10/14 05:17:31;;;;;;;44.13;22.75;;;;;;;;;;5056732;28;20025;-84
2022/10/14 05:19:57;;;;;;;45.15;22.48;;;;;;;;;;5040271;28;20033;-83
2022/10/14 05:22:23;;;;;;;41.25;22.00;;;;;;;;;;5056124;28;20044;-83
2022/10/14 05:24:49;;;;;;;45.30;22.65;;;;;;;;;;5058687;28;20028;-84
2022/10/14 05:27:15;;;;;;;42.17;22.23;;;;;;;;;;5059331;28;20024;-84
2022/10/14 05:29:41;;;;;;;40.47;21.98;;;;;;;;;;5040231;28;20025;-84
2022/10/14 05:32:07;;;;;;;55.67;24.75;;;;;;;;;;5041981;28;20451;-84
2022/10/14 05:34:34;;;;;;;46.75;22.80;;;;;;;;;;5055465;28;20071;-83
2022/10/14 05:37:01;;;;;;;46.92;21.83;;;;;;;;;;5053697;28;20040;-84
2022/10/14 05:39:27;;;;;;;42.53;22.52;;;;;;;;;;5053812;28;20045;-83
2022/10/14 05:41:53;;;;;;;52.05;24.75;;;;;;;;;;5057387;28;20031;-84
2022/10/14 05:44:19;;;;;;;52.53;24.67;;;;;;;;;;5054068;28;20406;-84
2022/10/14 05:46:45;;;;;;;49.40;24.27;;;;;;;;;;5054984;28;20025;-84
2022/10/14 05:49:11;;;;;;;49.92;24.65;;;;;;;;;;5053156;28;20032;-83
2022/10/14 05:51:37;;;;;;;51.22;24.13;;;;;;;;;;5053321;28;20078;-83
2022/10/14 05:54:03;;;;;;;55.85;25.20;;;;;;;;;;5058032;28;20021;-85
2022/10/14 05:56:29;;;;;;;50.20;24.13;;;;;;;;;;5061524;28;20024;-83
2022/10/14 05:58:56;;;;;;;47.78;22.98;;;;;;;;;;5044542;28;20052;-83
2022/10/14 06:01:22;;;;;;;43.15;21.80;;;;;;;;;;5045464;28;20040;-81
2022/10/14 06:03:51;;;;;;;42.05;21.42;;;;;;;;;;5057406;28;20391;-82
2022/10/14 06:06:18;;;;;;;37.72;20.45;;;;;;;;;;5056083;28;20103;-82
2022/10/14 06:08:44;;;;;;;38.53;19.13;;;;;;;;;;5066428;28;20031;-82
2022/10/14 06:11:10;;;;;;;35.63;19.77;;;;;;;;;;5061663;28;20488;-82
2022/10/14 06:13:36;;;;;;;36.63;18.40;;;;;;;;;;5040297;28;20020;-82
2022/10/14 06:16:06;;;;;;;33.70;18.75;;;;;;;;;;5054761;28;20031;-81
2022/10/14 06:18:32;;;;;;;40.10;19.17;;;;;;;;;;5054846;28;20033;-82
2022/10/14 06:20:59;;;;;;;37.22;19.77;;;;;;;;;;5054870;28;20048;-81
2022/10/14 06:23:25;;;;;;;43.47;21.80;;;;;;;;;;5054731;28;20036;-81
2022/10/14 06:25:51;;;;;;;41.58;21.77;;;;;;;;;;5054033;28;20033;-81
2022/10/14 06:28:17;;;;;;;39.83;20.52;;;;;;;;;;5053148;28;20670;-81
2022/10/14 06:30:48;;;;;;;43.38;21.52;;;;;;;;;;5054641;28;20037;-80
2022/10/14 06:33:14;;;;;;;46.25;21.90;;;;;;;;;;5052910;28;20044;-80
2022/10/14 06:35:40;;;;;;;45.08;21.67;;;;;;;;;;5054451;28;20056;-80
2022/10/14 06:38:06;;;;;;;49.65;22.40;;;;;;;;;;5038346;28;20032;-81
2022/10/14 06:40:32;;;;;;;45.53;22.50;;;;;;;;;;5055388;28;20105;-79
2022/10/14 06:42:58;;;;;;;45.70;22.38;;;;;;;;;;5055262;28;20049;-80
2022/10/14 06:45:24;;;;;;;47.17;20.58;;;;;;;;;;5054440;28;20059;-80
2022/10/14 06:47:50;;;;;;;42.67;20.75;;;;;;;;;;5055237;28;20033;-80
2022/10/14 06:50:16;;;;;;;47.88;23.10;;;;;;;;;;5054025;28;20080;-80
2022/10/14 06:52:44;;;;;;;41.42;20.33;;;;;;;;;;5054993;28;20490;-80
2022/10/14 06:55:10;;;;;;;44.75;20.77;;;;;;;;;;5055275;28;20028;-81
2022/10/14 06:57:36;;;;;;;44.00;21.02;;;;;;;;;;5056174;28;20084;-82
2022/10/14 07:00:03;;;;;;;44.85;21.65;;;;;;;;;;5058310;28;20047;-83
2022/10/14 07:02:29;;;;;;;41.35;20.92;;;;;;;;;;5058144;28;20025;-83
2022/10/14 07:04:55;;;;;;;43.50;19.73;;;;;;;;;;5039067;28;20036;-83
2022/10/14 07:07:21;;;;;;;39.80;21.98;;;;;;;;;;5040770;28;20467;-83
2022/10/14 07:09:47;;;;;;;46.35;22.35;;;;;;;;;;5058434;28;20029;-83
2022/10/14 07:12:13;;;;;;;43.40;21.88;;;;;;;;;;5041930;28;20025;-83
2022/10/14 07:14:39;;;;;;;45.45;21.65;;;;;;;;;;5057955;28;20442;-83
2022/10/14 07:17:07;;;;;;;37.78;20.67;;;;;;;;;;5060182;28;20044;-84
2022/10/14 07:19:33;;;;;;;35.88;18.25;;;;;;;;;;5057558;28;20067;-84
2022/10/14 07:21:59;;;;;;;32.17;17.10;;;;;;;;;;5039328;28;20029;-83
2022/10/14 07:24:25;;;;;;;34.20;17.40;;;;;;;;;;5038100;28;20089;-83
2022/10/14 07:26:51;;;;;;;33.78;17.85;;;;;;;;;;5053903;28;20033;-83
2022/10/14 07:29:17;;;;;;;38.22;19.45;;;;;;;;;;5056132;28;20029;-83
2022/10/14 07:31:43;;;;;;;41.17;18.15;;;;;;;;;;5056089;28;20017;-83
2022/10/14 07:34:09;;;;;;;38.85;19.80;;;;;;;;;;5056753;28;20021;-83
2022/10/14 07:36:35;;;;;;;36.03;17.55;;;;;;;;;;5055217;28;20060;-83
2022/10/14 07:39:01;;;;;;;31.15;17.15;;;;;;;;;;5059234;28;20048;-83
2022/10/14 07:41:28;;;;;;;32.35;17.02;;;;;;;;;;5060163;28;20032;-83
2022/10/14 07:43:57;;;;;;;34.67;16.63;;;;;;;;;;5057888;28;20040;-83
2022/10/14 07:46:28;;;;;;;32.13;17.58;;;;;;;;;;5057391;28;20366;-83
2022/10/14 07:48:55;;;;;;;36.95;19.05;;;;;;;;;;5059286;28;20021;-83
2022/10/14 07:51:21;;;;;;;36.65;17.98;;;;;;;;;;5041161;28;20059;-83
2022/10/14 07:53:47;;;;;;;33.45;17.88;;;;;;;;;;5058739;28;20031;-83
2022/10/14 07:56:13;;;;;;;34.20;16.98;;;;;;;;;;5056681;28;20025;-83
2022/10/14 07:58:42;;;;;;;29.33;16.50;;;;;;;;;;5058925;28;20032;-82
2022/10/14 08:01:08;;;;;;;27.67;16.27;;;;;;;;;;5058614;28;20048;-82
2022/10/14 08:03:34;;;;;;;31.50;16.83;;;;;;;;;;5042093;28;20025;-82
2022/10/14 08:06:01;;;;;;;38.15;18.98;;;;;;;;;;5057112;28;20074;-83
2022/10/14 08:08:27;;;;;;;32.22;18.50;;;;;;;;;;5058434;28;20104;-83
2022/10/14 08:11:00;;;;;;;33.78;18.80;;;;;;;;;;5058078;28;20051;-83
2022/10/14 08:13:26;;;;;;;34.22;18.42;;;;;;;;;;5058640;28;20029;-82
2022/10/14 08:15:53;;;;;;;37.75;18.40;;;;;;;;;;5057341;28;20025;-82
2022/10/14 08:18:19;;;;;;;31.25;18.33;;;;;;;;;;5058532;28;20033;-82
2022/10/14 08:20:44;;;;;;;33.50;18.30;;;;;;;;;;5059259;28;20091;-82
2022/10/14 08:23:12;;;;;;;38.08;21.20;;;;;;;;;;5059579;28;20032;-82
2022/10/14 08:25:38;;;;;;;41.08;29.40;;;;;;;;;;5057812;28;20029;-83
2022/10/14 08:28:04;;;;;;;38.15;21.70;;;;;;;;;;5058264;28;20040;-82
2022/10/14 08:30:30;;;;;;;35.15;20.80;;;;;;;;;;5059732;28;20029;-82
2022/10/14 08:32:58;;;;;;;37.03;19.90;;;;;;;;;;5060488;28;20029;-83
2022/10/14 08:35:24;;;;;;;33.20;18.77;;;;;;;;;;5059746;28;20049;-83
2022/10/14 08:37:57;;;;;;;36.42;18.48;;;;;;;;;;5061847;28;20073;-82
2022/10/14 08:40:28;;;;;;;30.85;18.05;;;;;;;;;;5024781;28;1108015;-81
2022/10/14 08:43:14;;;;;;;40.00;19.75;;;;;;;;;;5063060;28;20036;-83
2022/10/14 08:45:47;;;;;;;33.28;19.08;;;;;;;;;;5051630;28;20033;-84
2022/10/14 08:48:12;;;;;;;;;;;;;;;;;;5044737;28;20119;-83
2022/10/14 08:50:43;;;;;;;35.70;19.10;;;;;;;;;;5062892;28;19905;-83
2022/10/14 08:53:12;;;;;;;38.80;21.08;;;;;;;;;;5042210;28;20063;-82
2022/10/14 08:55:40;;;;;;;37.80;20.35;;;;;;;;;;5060582;28;20025;-83
2022/10/14 08:58:21;;;;;;;36.95;21.15;;;;;;;;;;5061580;28;20013;-82
2022/10/14 09:00:50;;;;;;;39.95;21.35;;;;;;;;;;5061304;28;20029;-82
2022/10/14 09:03:23;;;;;;;35.20;19.52;;;;;;;;;;5060055;28;20025;-81
2022/10/14 09:06:12;;;;;;;34.10;18.92;;;;;;;;;;5059191;28;20086;-82
2022/10/14 09:08:43;;;;;;;36.70;22.23;;;;;;;;;;5053528;28;20060;-82
2022/10/14 09:11:19;;;;;;;41.85;19.90;;;;;;;;;;5060214;28;20032;-83
2022/10/14 09:13:57;;;;;;;41.28;22.67;;;;;;;;;;5059659;28;20059;-82
2022/10/14 09:16:23;;;;;;;40.75;24.52;;;;;;;;;;5058374;28;20025;-83
2022/10/14 09:19:09;;;;;;;43.63;22.02;;;;;;;;;;5056454;28;20032;-82
2022/10/14 09:21:37;;;;;;;43.38;22.25;;;;;;;;;;5038897;28;20022;-83
2022/10/14 09:24:03;;;;;;;38.63;21.23;;;;;;;;;;5040396;28;20021;-82
2022/10/14 09:26:39;;;;;;;42.63;22.23;;;;;;;;;;5056293;28;20037;-82
2022/10/14 09:29:13;;;;;;;43.80;22.92;;;;;;;;;;5057938;28;20052;-83
2022/10/14 09:31:39;;;;;;;38.67;21.08;;;;;;;;;;5055433;28;20052;-83
2022/10/14 09:34:06;;;;;;;43.28;21.75;;;;;;;;;;5056950;28;20021;-82
2022/10/14 09:36:32;;;;;;;41.95;21.85;;;;;;;;;;5056173;28;20036;-84
2022/10/14 09:38:58;;;;;;;46.80;22.95;;;;;;;;;;5057067;28;20403;-83
2022/10/14 09:41:27;;;;;;;43.13;22.40;;;;;;;;;;5057089;28;20025;-83
2022/10/14 09:44:12;;;;;;;41.17;21.90;;;;;;;;;;5055302;28;20033;-82
2022/10/14 09:46:38;;;;;;;43.28;22.33;;;;;;;;;;5055066;28;20021;-83
2022/10/14 09:49:04;;;;;;;44.80;22.13;;;;;;;;;;5056864;28;20017;-83
2022/10/14 09:51:34;;;;;;;39.13;21.63;;;;;;;;;;5058388;28;20020;-83
2022/10/14 09:54:01;;;;;;;36.72;21.08;;;;;;;;;;5057826;28;20053;-84
2022/10/14 09:56:30;;;;;;;40.83;22.73;;;;;;;;;;5056385;28;20147;-83
2022/10/14 09:58:57;;;;;;;41.63;21.45;;;;;;;;;;5058248;28;20487;-84
2022/10/14 10:01:33;;;;;;;46.15;22.45;;;;;;;;;;5055043;28;20544;-83
2022/10/14 10:04:19;;;;;;;39.30;22.45;;;;;;;;;;5055857;28;20090;-83
2022/10/14 10:06:52;;;;;;;37.33;21.05;;;;;;;;;;5055195;28;20445;-84
2022/10/14 10:09:18;;;;;;;;;;;;;;;;;;5057503;28;20028;-84
2022/10/14 10:11:44;;;;;;;43.88;22.50;;;;;;;;;;5056233;28;19908;-83
2022/10/14 10:14:20;;;;;;;36.65;20.48;;;;;;;;;;5056809;28;20019;-83
2022/10/14 10:16:46;;;;;;;43.40;24.23;;;;;;;;;;5040225;28;20029;-84
2022/10/14 10:19:26;;;;;;;41.58;23.70;;;;;;;;;;5038394;28;20123;-84
2022/10/14 10:21:52;;;;;;;39.00;22.17;;;;;;;;;;5056566;28;20025;-84
2022/10/14 10:24:21;;;;;;;44.03;23.85;;;;;;;;;;5055372;28;20059;-84
2022/10/14 10:26:47;;;;;;;41.85;22.25;;;;;;;;;;5055227;28;20029;-84
2022/10/14 10:29:34;;;;;;;37.42;20.30;;;;;;;;;;5055268;28;20029;-82
2022/10/14 10:32:09;;;;;;;41.90;23.10;;;;;;;;;;5037643;28;20021;-84
2022/10/14 10:34:47;;;;;;;39.60;22.38;;;;;;;;;;5036092;28;20071;-84
2022/10/14 10:37:13;;;;;;;44.03;23.50;;;;;;;;;;5055326;28;20032;-84
2022/10/14 10:39:49;;;;;;;35.80;20.10;;;;;;;;;;5054610;28;20090;-83
2022/10/14 10:42:15;;;;;;;34.72;20.73;;;;;;;;;;5054200;28;20115;-84
2022/10/14 10:45:00;;;;;;;34.72;21.55;;;;;;;;;;5054075;28;20522;-83
2022/10/14 10:47:44;;;;;;;30.20;20.00;;;;;;;;;;5036328;28;20031;-83
2022/10/14 10:50:23;;;;;;;35.58;21.05;;;;;;;;;;5054720;28;20018;-83
2022/10/14 10:53:00;;;;;;;40.30;21.50;;;;;;;;;;5037485;28;20078;-83
2022/10/14 10:55:34;;;;;;;36.22;20.65;;;;;;;;;;5056152;28;20018;-83
2022/10/14 10:58:18;;;;;;;36.60;21.27;;;;;;;;;;5058563;28;20021;-82
2022/10/14 11:00:48;;;;;;;40.00;22.05;;;;;;;;;;5040032;28;20031;-82
2022/10/14 11:03:33;;;;;;;38.45;22.23;;;;;;;;;;5057602;28;20025;-82
2022/10/14 11:12:01;;;;;;;38.35;21.05;;;;;;;;;;5057008;28;20415;-83
2022/10/14 11:12:11;;;;;;;33.15;20.55;;;;;;;;;;5037182;28;20025;-82
2022/10/14 11:15:01;;;;;;;37.20;21.95;;;;;;;;;;5056425;28;20029;-82
2022/10/14 11:17:31;;;;;;;37.65;21.17;;;;;;;;;;5056590;28;20025;-81
2022/10/14 11:20:11;;;;;;;31.98;19.83;;;;;;;;;;5051469;28;20030;-80
2022/10/14 11:22:37;;;;;;;33.90;20.35;;;;;;;;;;5037467;28;20025;-80
2022/10/14 11:25:16;;;;;;;32.00;20.45;;;;;;;;;;5049423;28;20248;-81
2022/10/14 11:27:53;;;;;;;31.50;19.58;;;;;;;;;;5061509;28;20040;-80
2022/10/14 11:30:21;;;;;;;33.00;19.35;;;;;;;;;;5055754;28;20047;-81
2022/10/14 11:32:53;;;;;;;30.58;19.75;;;;;;;;;;5057325;28;20037;-81
2022/10/14 11:35:19;;;;;;;31.15;19.48;;;;;;;;;;5054272;28;20104;-81
2022/10/14 11:37:58;;;;;;;28.00;18.65;;;;;;;;;;5051367;28;20472;-82
2022/10/14 11:40:27;;;;;;;29.55;16.75;;;;;;;;;;5051852;28;20048;-83
2022/10/14 11:43:00;;;;;;;25.02;17.33;;;;;;;;;;5055630;28;20505;-83
2022/10/14 11:45:45;;;;;;;26.83;17.08;;;;;;;;;;5054753;28;20040;-83
2022/10/14 11:48:23;;;;;;;26.58;17.27;;;;;;;;;;5055252;28;20387;-82
2022/10/14 11:50:53;;;;;;;27.38;16.55;;;;;;;;;;5038057;28;20071;-83
2022/10/14 11:53:20;;;;;;;28.52;16.90;;;;;;;;;;5056172;28;20021;-84
2022/10/14 11:55:50;;;;;;;24.20;16.80;;;;;;;;;;5055230;28;20025;-84
2022/10/14 11:58:19;;;;;;;25.10;16.48;;;;;;;;;;5055610;28;20079;-84
2022/10/14 12:03:47;;;;;;;23.65;15.75;;;;;;;;;;5055204;28;20039;-84
2022/10/14 12:06:25;;;;;;;22.75;15.73;;;;;;;;;;5055051;28;20029;-84
2022/10/14 12:08:57;;;;;;;20.42;13.05;;;;;;;;;;5055732;28;20559;-85
2022/10/14 12:11:23;;;;;;;20.67;15.00;;;;;;;;;;5054212;28;20056;-85
2022/10/14 12:13:51;;;;;;;22.55;14.60;;;;;;;;;;5054636;28;20518;-85
2022/10/14 12:16:18;;;;;;;25.15;15.52;;;;;;;;;;5052075;28;20025;-85
2022/10/14 12:18:45;;;;;;;22.85;14.65;;;;;;;;;;5053659;28;20091;-83
2022/10/14 12:21:19;;;;;;;22.38;15.40;;;;;;;;;;5054124;28;20083;-85
2022/10/14 12:23:47;;;;;;;28.40;15.90;;;;;;;;;;5054356;28;20025;-85
2022/10/14 12:26:18;;;;;;;22.35;15.73;;;;;;;;;;5050174;28;20101;-85
2022/10/14 12:28:44;;;;;;;24.92;15.70;;;;;;;;;;5035838;28;20476;-84
2022/10/14 12:31:20;;;;;;;25.70;16.77;;;;;;;;;;5053441;28;20029;-84
2022/10/14 12:34:06;;;;;;;25.38;16.20;;;;;;;;;;5053651;28;20364;-84
2022/10/14 12:36:32;;;;;;;25.38;15.68;;;;;;;;;;5053336;28;20063;-84
2022/10/14 12:39:16;;;;;;;27.83;16.00;;;;;;;;;;5054690;28;20073;-83
2022/10/14 12:41:53;;;;;;;24.30;15.13;;;;;;;;;;5037656;28;20025;-84
2022/10/14 12:44:20;;;;;;;25.25;15.25;;;;;;;;;;5053429;28;20111;-84
2022/10/14 12:46:47;;;;;;;23.73;15.30;;;;;;;;;;5052739;28;20031;-83
2022/10/14 12:49:39;;;;;;;25.23;15.73;;;;;;;;;;5053792;28;20079;-84
2022/10/14 12:52:07;;;;;;;21.58;14.48;;;;;;;;;;5051822;28;20048;-83
2022/10/14 12:54:35;;;;;;;24.15;14.95;;;;;;;;;;5053638;28;20079;-83
2022/10/14 12:57:20;;;;;;;21.17;13.55;;;;;;;;;;5052966;28;20030;-82
2022/10/14 12:59:49;;;;;;;21.88;14.05;;;;;;;;;;5055068;28;20087;-84
2022/10/14 13:02:24;;;;;;;22.55;14.85;;;;;;;;;;5043025;28;20436;-84
2022/10/14 13:04:51;;;;;;;21.88;14.30;;;;;;;;;;5049414;28;20028;-85
2022/10/14 13:07:17;;;;;;;22.67;14.30;;;;;;;;;;5039863;28;20191;-85
2022/10/14 13:09:47;;;;;;;23.92;14.60;;;;;;;;;;5055435;28;20490;-85
2022/10/14 13:12:19;;;;;;;23.38;15.00;;;;;;;;;;5054296;28;20071;-85
2022/10/14 13:14:54;;;;;;;25.48;15.25;;;;;;;;;;5044407;28;20158;-85
2022/10/14 13:17:29;;;;;;;22.77;14.73;;;;;;;;;;5067374;28;20134;-84
2022/10/14 13:19:55;;;;;;;24.80;14.90;;;;;;;;;;5058102;28;20035;-84
2022/10/14 13:22:27;;;;;;;22.55;14.30;;;;;;;;;;5062323;28;20028;-85
2022/10/14 13:25:01;;;;;;;23.30;13.43;;;;;;;;;;5054037;28;20083;-84
2022/10/14 13:27:28;;;;;;;22.05;14.35;;;;;;;;;;5043354;28;20116;-85
2022/10/14 13:30:07;;;;;;;20.65;13.95;;;;;;;;;;5051134;28;20036;-84
2022/10/14 13:32:36;;;;;;;22.58;13.77;;;;;;;;;;5053357;28;20052;-85
2022/10/14 13:35:02;;;;;;;22.75;14.45;;;;;;;;;;5038533;28;20030;-85
2022/10/14 13:37:28;;;;;;;21.70;14.00;;;;;;;;;;5055929;28;20055;-85
2022/10/14 13:39:56;;;;;;;21.95;13.88;;;;;;;;;;5055287;28;21020;-85
2022/10/14 13:42:27;;;;;;;22.05;15.48;;;;;;;;;;5021160;28;20029;-85
2022/10/14 13:44:57;;;;;;;20.23;13.77;;;;;;;;;;5052054;28;20052;-84
2022/10/14 13:47:23;;;;;;;19.95;12.15;;;;;;;;;;5053461;28;20025;-84
2022/10/14 13:49:50;;;;;;;23.55;13.45;;;;;;;;;;5056126;28;20127;-85
2022/10/14 13:52:18;;;;;;;19.23;12.38;;;;;;;;;;5054488;28;20108;-84
2022/10/14 13:54:44;;;;;;;22.48;13.55;;;;;;;;;;5034554;28;20025;-84
2022/10/14 13:57:14;;;;;;;23.75;14.48;;;;;;;;;;5054625;28;20086;-84
2022/10/14 13:59:42;;;;;;;20.20;12.90;;;;;;;;;;5054370;28;20029;-84
2022/10/14 14:02:14;;;;;;;19.63;12.65;;;;;;;;;;5059570;28;20028;-85
2022/10/14 14:04:40;;;;;;;19.00;12.50;;;;;;;;;;5053258;28;20029;-84
2022/10/14 14:07:06;;;;;;;22.30;13.75;;;;;;;;;;5069411;28;20222;-85
2022/10/14 14:09:34;;;;;;;20.83;13.00;;;;;;;;;;5074126;28;20024;-84
2022/10/14 14:12:02;;;;;;;20.98;12.98;;;;;;;;;;5058200;28;20031;-84
2022/10/14 14:14:40;;;;;;;20.63;12.90;;;;;;;;;;5039771;28;20028;-84
2022/10/14 14:17:11;;;;;;;22.20;13.30;;;;;;;;;;5057293;28;20493;-84
2022/10/14 14:19:41;;;;;;;19.70;12.20;;;;;;;;;;5057800;28;20078;-84
2022/10/14 14:22:15;;;;;;;19.50;12.18;;;;;;;;;;5054864;28;20029;-83
2022/10/14 14:24:41;;;;;;;23.75;12.68;;;;;;;;;;5055344;28;20040;-83
2022/10/14 14:27:15;;;;;;;21.02;12.48;;;;;;;;;;5060750;28;20033;-84
2022/10/14 14:29:45;;;;;;;19.45;11.70;;;;;;;;;;5045258;28;20025;-85
2022/10/14 14:32:19;;;;;;;20.27;12.05;;;;;;;;;;5048761;28;20252;-85
2022/10/14 14:34:45;;;;;;;19.13;12.25;;;;;;;;;;5053940;28;20025;-83
2022/10/14 14:37:21;;;;;;;22.73;13.05;;;;;;;;;;5045381;28;20051;-83